sensor_id;sensor_type;location;lat;lon;timestamp;P1;durP1;ratioP1;P2;durP2;ratioP2
72621;SDS011;60665;53.506;9.582;2023-03-05T05:00:17;1.50;;;0.43;;
72621;SDS011;60665;53.506;9.582;2023-03-05T05:02:43;2.80;;;0.43;;
72621;SDS011;60665;53.506;9.582;2023-03-05T05:05:14;2.50;;;0.45;;
72621;SDS011;60665;53.506;9.582;2023-03-05T05:07:41;3.95;;;0.60;;
72621;SDS011;60665;53.506;9.582;2023-03-05T05:10:07;2.67;;;0.60;;
72621;SDS011;60665;53.506;9.582;2023-03-05T05:12:34;3.50;;;0.70;;
72621;SDS011;60665;53.506;9.582;2023-03-05T05:14:59;1.63;;;0.45;;
72621;SDS011;60665;53.506;9.582;2023-03-05T05:17:25;3.03;;;0.57;;
72621;SDS011;60665;53.506;9.582;2023-03-05T05:19:54;4.35;;;0.77;;
72621;SDS011;60665;53.506;9.582;2023-03-05T05:22:19;4.90;;;0.77;;
72621;SDS011;60665;53.506;9.582;2023-03-05T05:24:44;2.00;;;0.55;;
72621;SDS011;60665;53.506;9.582;2023-03-05T05:27:10;5.25;;;0.77;;
72621;SDS011;60665;53.506;9.582;2023-03-05T05:29:35;4.38;;;0.70;;
72621;SDS011;60665;53.506;9.582;2023-03-05T05:32:01;5.80;;;1.25;;
72621;SDS011;60665;53.506;9.582;2023-03-05T05:34:27;4.38;;;0.80;;
72621;SDS011;60665;53.506;9.582;2023-03-05T05:36:52;3.20;;;0.77;;
72621;SDS011;60665;53.506;9.582;2023-03-05T05:39:18;5.63;;;0.73;;
72621;SDS011;60665;53.506;9.582;2023-03-05T05:41:43;6.20;;;0.75;;
72621;SDS011;60665;53.506;9.582;2023-03-05T05:44:09;2.40;;;0.77;;
72621;SDS011;60665;53.506;9.582;2023-03-05T05:46:34;6.57;;;0.85;;
72621;SDS011;60665;53.506;9.582;2023-03-05T05:48:59;4.03;;;0.57;;
72621;SDS011;60665;53.506;9.582;2023-03-05T05:51:25;5.95;;;0.90;;
72621;SDS011;60665;53.506;9.582;2023-03-05T05:53:50;3.60;;;0.50;;
72621;SDS011;60665;53.506;9.582;2023-03-05T05:56:16;5.93;;;0.88;;
72621;SDS011;60665;53.506;9.582;2023-03-05T05:58:42;5.30;;;0.82;;
72621;SDS011;60665;53.506;9.582;2023-03-05T06:01:13;4.65;;;0.75;;
72621;SDS011;60665;53.506;9.582;2023-03-05T06:03:52;7.90;;;0.93;;
72621;SDS011;60665;53.506;9.582;2023-03-05T06:06:18;2.85;;;0.52;;
72621;SDS011;60665;53.506;9.582;2023-03-05T06:08:45;2.00;;;0.50;;
72621;SDS011;60665;53.506;9.582;2023-03-05T06:11:11;7.93;;;0.80;;
72621;SDS011;60665;53.506;9.582;2023-03-05T06:13:37;3.65;;;0.70;;
72621;SDS011;60665;53.506;9.582;2023-03-05T06:16:04;4.13;;;0.60;;
72621;SDS011;60665;53.506;9.582;2023-03-05T06:20:58;3.17;;;0.77;;
72621;SDS011;60665;53.506;9.582;2023-03-05T06:23:25;6.53;;;0.70;;
72621;SDS011;60665;53.506;9.582;2023-03-05T06:25:51;2.42;;;0.50;;
72621;SDS011;60665;53.506;9.582;2023-03-05T06:28:16;5.13;;;0.70;;
72621;SDS011;60665;53.506;9.582;2023-03-05T06:30:42;5.68;;;0.60;;
72621;SDS011;60665;53.506;9.582;2023-03-05T06:33:07;6.47;;;0.80;;
72621;SDS011;60665;53.506;9.582;2023-03-05T06:35:33;1.98;;;0.70;;
72621;SDS011;60665;53.506;9.582;2023-03-05T06:37:58;4.93;;;0.90;;
72621;SDS011;60665;53.506;9.582;2023-03-05T06:40:24;3.22;;;0.60;;
72621;SDS011;60665;53.506;9.582;2023-03-05T06:42:49;3.72;;;0.47;;
72621;SDS011;60665;53.506;9.582;2023-03-05T06:45:14;1.35;;;0.40;;
72621;SDS011;60665;53.506;9.582;2023-03-05T06:47:40;3.08;;;0.57;;
72621;SDS011;60665;53.506;9.582;2023-03-05T06:50:05;4.30;;;0.50;;
72621;SDS011;60665;53.506;9.582;2023-03-05T06:52:31;3.88;;;0.90;;
72621;SDS011;60665;53.506;9.582;2023-03-05T06:54:57;3.28;;;0.55;;
72621;SDS011;60665;53.506;9.582;2023-03-05T06:57:22;2.80;;;0.60;;
72621;SDS011;60665;53.506;9.582;2023-03-05T06:59:47;3.10;;;0.60;;
72621;SDS011;60665;53.506;9.582;2023-03-05T07:02:13;4.45;;;0.57;;
72621;SDS011;60665;53.506;9.582;2023-03-05T07:04:38;3.90;;;0.55;;
72621;SDS011;60665;53.506;9.582;2023-03-05T16:28:55;4.85;;;1.17;;
72621;SDS011;60665;53.506;9.582;2023-03-05T16:31:21;3.15;;;1.13;;
72621;SDS011;60665;53.506;9.582;2023-03-05T16:33:46;3.17;;;0.90;;
72621;SDS011;60665;53.506;9.582;2023-03-05T16:38:42;7.13;;;1.75;;
72621;SDS011;60665;53.506;9.582;2023-03-05T16:41:07;6.97;;;1.83;;
72621;SDS011;60665;53.506;9.582;2023-03-05T16:43:33;4.03;;;1.13;;
72621;SDS011;60665;53.506;9.582;2023-03-05T16:45:58;7.00;;;1.60;;
72621;SDS011;60665;53.506;9.582;2023-03-05T16:48:23;5.07;;;1.50;;
72621;SDS011;60665;53.506;9.582;2023-03-05T16:50:49;9.15;;;1.25;;
72621;SDS011;60665;53.506;9.582;2023-03-05T16:53:14;4.45;;;1.23;;
72621;SDS011;60665;53.506;9.582;2023-03-05T16:55:40;4.47;;;1.63;;
72621;SDS011;60665;53.506;9.582;2023-03-05T16:58:06;5.55;;;2.22;;
72621;SDS011;60665;53.506;9.582;2023-03-05T17:00:31;6.00;;;1.83;;
72621;SDS011;60665;53.506;9.582;2023-03-05T17:02:57;6.03;;;1.85;;
72621;SDS011;60665;53.506;9.582;2023-03-05T17:05:22;7.05;;;1.63;;
72621;SDS011;60665;53.506;9.582;2023-03-05T17:07:52;4.10;;;1.55;;
72621;SDS011;60665;53.506;9.582;2023-03-05T17:10:17;5.57;;;1.90;;
72621;SDS011;60665;53.506;9.582;2023-03-05T17:12:42;5.38;;;1.85;;
72621;SDS011;60665;53.506;9.582;2023-03-05T17:15:08;6.93;;;1.92;;
72621;SDS011;60665;53.506;9.582;2023-03-05T17:17:34;6.95;;;1.70;;
72621;SDS011;60665;53.506;9.582;2023-03-05T17:20:01;4.53;;;1.50;;
72621;SDS011;60665;53.506;9.582;2023-03-05T17:22:27;4.57;;;1.40;;
72621;SDS011;60665;53.506;9.582;2023-03-05T17:24:52;3.97;;;1.30;;
72621;SDS011;60665;53.506;9.582;2023-03-05T17:27:18;10.32;;;3.67;;
72621;SDS011;60665;53.506;9.582;2023-03-05T17:29:44;9.98;;;4.53;;
72621;SDS011;60665;53.506;9.582;2023-03-05T17:32:10;7.18;;;2.50;;
72621;SDS011;60665;53.506;9.582;2023-03-05T17:34:35;4.93;;;1.40;;
72621;SDS011;60665;53.506;9.582;2023-03-05T17:37:01;2.55;;;0.90;;
72621;SDS011;60665;53.506;9.582;2023-03-05T17:39:27;2.92;;;1.02;;
72621;SDS011;60665;53.506;9.582;2023-03-05T17:41:52;5.18;;;1.52;;
72621;SDS011;60665;53.506;9.582;2023-03-05T17:44:18;4.88;;;1.40;;
72621;SDS011;60665;53.506;9.582;2023-03-05T17:46:43;6.85;;;2.20;;
72621;SDS011;60665;53.506;9.582;2023-03-05T17:49:09;5.88;;;1.80;;
72621;SDS011;60665;53.506;9.582;2023-03-05T17:51:34;8.25;;;2.58;;
72621;SDS011;60665;53.506;9.582;2023-03-05T17:54:01;3.28;;;1.45;;
72621;SDS011;60665;53.506;9.582;2023-03-05T17:56:27;2.75;;;0.82;;
72621;SDS011;60665;53.506;9.582;2023-03-05T17:58:54;9.45;;;1.63;;
72621;SDS011;60665;53.506;9.582;2023-03-05T18:01:23;4.95;;;1.42;;
72621;SDS011;60665;53.506;9.582;2023-03-05T18:03:51;7.40;;;1.70;;
72621;SDS011;60665;53.506;9.582;2023-03-05T18:06:16;9.32;;;2.10;;
72621;SDS011;60665;53.506;9.582;2023-03-05T18:08:41;5.75;;;2.08;;
72621;SDS011;60665;53.506;9.582;2023-03-05T18:11:07;4.30;;;1.50;;
72621;SDS011;60665;53.506;9.582;2023-03-05T18:13:32;3.33;;;1.20;;
72621;SDS011;60665;53.506;9.582;2023-03-05T18:15:58;2.10;;;0.93;;
72621;SDS011;60665;53.506;9.582;2023-03-05T18:18:24;3.95;;;1.02;;
72621;SDS011;60665;53.506;9.582;2023-03-05T18:20:49;4.65;;;0.75;;
72621;SDS011;60665;53.506;9.582;2023-03-05T18:23:15;2.00;;;0.82;;
72621;SDS011;60665;53.506;9.582;2023-03-05T18:25:40;2.70;;;0.70;;
72621;SDS011;60665;53.506;9.582;2023-03-05T18:28:08;2.47;;;1.00;;
72621;SDS011;60665;53.506;9.582;2023-03-05T18:30:34;3.42;;;1.13;;
72621;SDS011;60665;53.506;9.582;2023-03-05T18:33:00;3.80;;;1.45;;
72621;SDS011;60665;53.506;9.582;2023-03-05T18:35:26;2.97;;;1.30;;
72621;SDS011;60665;53.506;9.582;2023-03-05T18:37:53;4.32;;;1.50;;
72621;SDS011;60665;53.506;9.582;2023-03-05T18:40:20;3.63;;;1.30;;
72621;SDS011;60665;53.506;9.582;2023-03-05T18:42:48;6.68;;;2.75;;
72621;SDS011;60665;53.506;9.582;2023-03-05T18:45:14;7.15;;;2.92;;
72621;SDS011;60665;53.506;9.582;2023-03-05T18:47:41;3.58;;;1.50;;
72621;SDS011;60665;53.506;9.582;2023-03-05T18:50:08;6.53;;;2.28;;
72621;SDS011;60665;53.506;9.582;2023-03-05T18:52:54;6.53;;;2.60;;
72621;SDS011;60665;53.506;9.582;2023-03-05T18:55:21;8.85;;;2.70;;
72621;SDS011;60665;53.506;9.582;2023-03-05T18:57:51;4.75;;;2.20;;
72621;SDS011;60665;53.506;9.582;2023-03-05T19:00:18;6.32;;;2.90;;
72621;SDS011;60665;53.506;9.582;2023-03-05T19:02:45;4.25;;;1.50;;
72621;SDS011;60665;53.506;9.582;2023-03-05T19:05:12;2.25;;;0.93;;
72621;SDS011;60665;53.506;9.582;2023-03-05T19:07:38;2.50;;;1.10;;
72621;SDS011;60665;53.506;9.582;2023-03-05T19:10:05;2.33;;;1.00;;
72621;SDS011;60665;53.506;9.582;2023-03-05T19:12:33;2.63;;;1.02;;
72621;SDS011;60665;53.506;9.582;2023-03-05T19:15:02;3.33;;;1.27;;
72621;SDS011;60665;53.506;9.582;2023-03-05T19:17:29;2.55;;;1.10;;
72621;SDS011;60665;53.506;9.582;2023-03-05T19:19:55;3.33;;;1.17;;
72621;SDS011;60665;53.506;9.582;2023-03-05T19:22:23;3.08;;;1.15;;
72621;SDS011;60665;53.506;9.582;2023-03-05T19:24:50;2.83;;;1.10;;
72621;SDS011;60665;53.506;9.582;2023-03-05T19:27:19;2.75;;;1.25;;
72621;SDS011;60665;53.506;9.582;2023-03-05T19:29:44;3.25;;;1.25;;
72621;SDS011;60665;53.506;9.582;2023-03-05T19:32:11;4.18;;;1.55;;
72621;SDS011;60665;53.506;9.582;2023-03-05T19:34:39;3.78;;;1.70;;
72621;SDS011;60665;53.506;9.582;2023-03-05T19:37:04;3.85;;;1.60;;
72621;SDS011;60665;53.506;9.582;2023-03-05T19:39:30;4.10;;;1.30;;
72621;SDS011;60665;53.506;9.582;2023-03-05T19:41:56;3.53;;;1.45;;
72621;SDS011;60665;53.506;9.582;2023-03-05T19:44:24;3.47;;;1.50;;
72621;SDS011;60665;53.506;9.582;2023-03-05T19:46:50;5.07;;;1.38;;
72621;SDS011;60665;53.506;9.582;2023-03-05T19:49:15;4.28;;;2.10;;
72621;SDS011;60665;53.506;9.582;2023-03-05T19:51:42;3.97;;;1.95;;
72621;SDS011;60665;53.506;9.582;2023-03-05T19:54:08;4.03;;;1.90;;
72621;SDS011;60665;53.506;9.582;2023-03-05T19:56:49;5.03;;;1.50;;
72621;SDS011;60665;53.506;9.582;2023-03-05T19:59:22;3.15;;;1.33;;
72621;SDS011;60665;53.506;9.582;2023-03-05T20:01:49;4.68;;;1.83;;
72621;SDS011;60665;53.506;9.582;2023-03-05T20:04:16;5.13;;;2.00;;
72621;SDS011;60665;53.506;9.582;2023-03-05T20:06:43;4.00;;;1.65;;
72621;SDS011;60665;53.506;9.582;2023-03-05T20:09:08;4.50;;;1.60;;
72621;SDS011;60665;53.506;9.582;2023-03-05T20:11:34;5.03;;;1.80;;
72621;SDS011;60665;53.506;9.582;2023-03-05T20:14:00;5.30;;;2.50;;
72621;SDS011;60665;53.506;9.582;2023-03-05T20:16:30;5.85;;;2.50;;
72621;SDS011;60665;53.506;9.582;2023-03-05T20:18:59;6.75;;;2.85;;
72621;SDS011;60665;53.506;9.582;2023-03-05T20:21:27;5.95;;;2.20;;
72621;SDS011;60665;53.506;9.582;2023-03-05T20:24:00;4.50;;;2.13;;
72621;SDS011;60665;53.506;9.582;2023-03-05T20:26:27;4.55;;;1.75;;
72621;SDS011;60665;53.506;9.582;2023-03-05T20:28:53;4.30;;;1.45;;
72621;SDS011;60665;53.506;9.582;2023-03-05T20:31:20;4.82;;;2.20;;
72621;SDS011;60665;53.506;9.582;2023-03-05T20:33:47;6.00;;;1.58;;
72621;SDS011;60665;53.506;9.582;2023-03-05T20:36:13;3.90;;;1.60;;
72621;SDS011;60665;53.506;9.582;2023-03-05T20:38:38;3.75;;;1.50;;
72621;SDS011;60665;53.506;9.582;2023-03-05T20:41:05;4.00;;;2.00;;
72621;SDS011;60665;53.506;9.582;2023-03-05T20:43:34;3.65;;;1.60;;
72621;SDS011;60665;53.506;9.582;2023-03-05T20:48:46;3.70;;;1.70;;
72621;SDS011;60665;53.506;9.582;2023-03-05T20:51:21;6.10;;;2.05;;
72621;SDS011;60665;53.506;9.582;2023-03-05T20:56:22;4.78;;;2.10;;
72621;SDS011;60665;53.506;9.582;2023-03-05T20:58:52;6.15;;;3.17;;
72621;SDS011;60665;53.506;9.582;2023-03-05T21:01:19;4.18;;;2.17;;
72621;SDS011;60665;53.506;9.582;2023-03-05T21:03:45;5.45;;;2.78;;
72621;SDS011;60665;53.506;9.582;2023-03-05T21:06:10;5.18;;;2.83;;
72621;SDS011;60665;53.506;9.582;2023-03-05T21:08:36;5.43;;;2.25;;
72621;SDS011;60665;53.506;9.582;2023-03-05T21:11:07;6.60;;;3.28;;
72621;SDS011;60665;53.506;9.582;2023-03-05T21:13:33;4.53;;;2.00;;
72621;SDS011;60665;53.506;9.582;2023-03-05T21:15:59;3.92;;;2.00;;
72621;SDS011;60665;53.506;9.582;2023-03-05T21:18:24;3.88;;;2.03;;
72621;SDS011;60665;53.506;9.582;2023-03-05T21:20:52;4.93;;;2.15;;
72621;SDS011;60665;53.506;9.582;2023-03-05T21:23:18;3.95;;;1.67;;
72621;SDS011;60665;53.506;9.582;2023-03-05T21:25:43;5.60;;;1.85;;
72621;SDS011;60665;53.506;9.582;2023-03-05T21:28:12;3.53;;;1.83;;
72621;SDS011;60665;53.506;9.582;2023-03-05T21:30:41;5.68;;;2.10;;
72621;SDS011;60665;53.506;9.582;2023-03-05T21:33:10;3.58;;;1.52;;
72621;SDS011;60665;53.506;9.582;2023-03-05T21:35:36;4.35;;;1.90;;
